createdAt,value
2022-11-29T00:01:32.439Z,13.27
2022-11-29T00:03:59.474Z,10.60
2022-11-29T00:06:31.425Z,13.23
2022-11-29T00:09:05.466Z,12.87
2022-11-29T00:11:54.867Z,12.70
2022-11-29T00:14:23.519Z,10.20
2022-11-29T00:16:52.428Z,12.47
2022-11-29T00:19:22.570Z,11.00
2022-11-29T00:21:48.862Z,10.70
2022-11-29T00:24:15.146Z,11.33
2022-11-29T00:26:41.396Z,10.07
2022-11-29T00:29:07.603Z,9.20
2022-11-29T00:31:33.847Z,9.07
2022-11-29T00:34:03.180Z,8.47
2022-11-29T00:36:29.691Z,10.87
2022-11-29T00:38:56.211Z,8.93
2022-11-29T00:41:22.770Z,11.07
2022-11-29T00:43:49.013Z,11.97
2022-11-29T00:46:15.704Z,9.23
2022-11-29T00:48:41.950Z,10.93
2022-11-29T00:51:08.493Z,12.07
2022-11-29T00:53:35.990Z,10.03
2022-11-29T00:56:03.538Z,13.03
2022-11-29T00:58:30.335Z,12.00
2022-11-29T01:00:57.282Z,13.23
2022-11-29T01:03:24.521Z,10.80
2022-11-29T01:05:50.984Z,13.07
2022-11-29T01:08:18.083Z,12.77
2022-11-29T01:10:44.331Z,13.00
2022-11-29T01:13:11.227Z,12.83
2022-11-29T01:15:37.438Z,11.53
2022-11-29T01:18:03.849Z,10.40
2022-11-29T01:20:30.584Z,10.53
2022-11-29T01:22:57.374Z,9.93
2022-11-29T01:25:23.599Z,10.87
2022-11-29T01:27:49.792Z,7.73
2022-11-29T01:30:16.126Z,11.20
2022-11-29T01:32:42.362Z,11.00
2022-11-29T01:35:08.772Z,9.83
2022-11-29T01:37:35.112Z,9.83
2022-11-29T01:40:01.394Z,12.03
2022-11-29T01:42:27.619Z,10.83
2022-11-29T01:45:23.022Z,9.27
2022-11-29T01:47:53.583Z,9.97
2022-11-29T01:50:20.523Z,8.90
2022-11-29T01:52:47.587Z,8.50
2022-11-29T01:55:14.847Z,7.53
2022-11-29T01:57:43.248Z,9.97
2022-11-29T02:00:15.175Z,8.63
2022-11-29T02:02:51.245Z,8.37
2022-11-29T02:05:22.510Z,8.73
2022-11-29T02:07:54.317Z,6.87
2022-11-29T02:10:54.502Z,8.40
2022-11-29T02:14:06.759Z,8.10
2022-11-29T02:16:44.894Z,8.57
2022-11-29T02:19:38.115Z,8.07
2022-11-29T02:22:18.577Z,6.83
2022-11-29T02:25:42.939Z,7.40
2022-11-29T02:28:58.753Z,8.73
2022-11-29T02:32:02.515Z,8.57
2022-11-29T02:35:12.191Z,8.00
2022-11-29T02:38:06.163Z,9.80
2022-11-29T02:40:50.838Z,9.20
2022-11-29T02:43:31.045Z,10.27
2022-11-29T02:46:32.626Z,10.80
2022-11-29T02:49:27.576Z,11.63
2022-11-29T02:52:43.952Z,11.37
2022-11-29T02:55:38.814Z,10.93
2022-11-29T02:58:16.498Z,9.67
2022-11-29T03:01:19.221Z,11.30
2022-11-29T03:04:45.713Z,10.60
2022-11-29T03:07:45.667Z,11.83
2022-11-29T03:10:58.692Z,10.70
2022-11-29T03:13:56.650Z,11.20
2022-11-29T03:16:50.644Z,12.43
2022-11-29T03:20:06.716Z,11.70
2022-11-29T03:23:19.543Z,12.03
2022-11-29T03:25:58.805Z,10.90
2022-11-29T03:28:52.489Z,11.57
2022-11-29T03:31:38.081Z,10.83
2022-11-29T03:35:13.084Z,11.60
2022-11-29T03:38:03.027Z,10.60
2022-11-29T03:41:07.135Z,10.33
2022-11-29T03:43:49.640Z,10.60
2022-11-29T03:46:41.607Z,8.93
2022-11-29T03:49:26.166Z,9.83
2022-11-29T03:52:11.949Z,11.27
2022-11-29T03:54:59.846Z,9.60
2022-11-29T03:58:13.029Z,8.50
2022-11-29T04:01:41.937Z,7.20
2022-11-29T04:04:51.658Z,10.57
2022-11-29T04:08:10.696Z,8.07
2022-11-29T04:11:27.788Z,6.80
2022-11-29T04:14:32.689Z,6.87
2022-11-29T04:17:36.347Z,8.27
2022-11-29T04:20:41.073Z,10.20
2022-11-29T04:23:45.931Z,8.57
2022-11-29T04:26:46.288Z,7.97
2022-11-29T04:29:56.123Z,9.27
2022-11-29T04:33:13.656Z,7.90
2022-11-29T04:35:48.606Z,10.07
2022-11-29T04:38:42.904Z,9.57
2022-11-29T04:41:32.120Z,7.43
2022-11-29T04:44:19.639Z,7.70
2022-11-29T04:46:57.678Z,9.73
2022-11-29T04:49:40.614Z,7.57
2022-11-29T04:52:32.170Z,6.67
2022-11-29T04:55:31.240Z,7.87
2022-11-29T04:58:13.505Z,6.57
2022-11-29T05:00:57.449Z,9.57
2022-11-29T05:04:02.067Z,10.23
2022-11-29T05:07:01.604Z,6.37
2022-11-29T05:09:45.760Z,9.87
2022-11-29T05:12:31.385Z,6.97
2022-11-29T05:15:37.772Z,6.40
2022-11-29T05:19:02.664Z,7.30
2022-11-29T05:21:59.376Z,7.20
2022-11-29T05:25:01.697Z,6.50
2022-11-29T05:27:36.389Z,8.93
2022-11-29T05:30:12.776Z,7.87
2022-11-29T05:33:20.818Z,7.07
2022-11-29T05:36:21.022Z,6.27
2022-11-29T05:39:30.859Z,6.40
2022-11-29T05:42:38.631Z,7.50
2022-11-29T05:45:33.893Z,6.60
2022-11-29T05:48:17.104Z,6.37
2022-11-29T05:51:17.834Z,7.30
2022-11-29T05:54:22.962Z,6.53
2022-11-29T05:57:42.861Z,7.27
2022-11-29T06:00:13.864Z,6.00
2022-11-29T06:03:31.831Z,6.80
2022-11-29T06:06:13.863Z,7.27
2022-11-29T06:09:05.524Z,6.97
2022-11-29T06:11:40.009Z,8.03
2022-11-29T06:14:43.506Z,6.93
2022-11-29T06:18:02.947Z,7.07
2022-11-29T06:20:59.970Z,6.20
2022-11-29T06:24:00.496Z,7.90
2022-11-29T06:26:49.307Z,18.73
2022-11-29T06:29:48.953Z,16.83
2022-11-29T06:32:29.777Z,16.10
2022-11-29T06:35:07.823Z,11.60
2022-11-29T06:37:48.206Z,16.77
2022-11-29T06:40:16.005Z,12.30
2022-11-29T06:42:42.815Z,8.37
2022-11-29T06:45:13.835Z,6.60
2022-11-29T06:47:57.658Z,8.73
2022-11-29T06:51:11.426Z,11.20
2022-11-29T06:54:03.630Z,13.13
2022-11-29T06:56:35.530Z,12.20
2022-11-29T06:59:39.878Z,9.50
2022-11-29T07:02:34.517Z,8.90
2022-11-29T07:05:35.279Z,7.20
2022-11-29T07:08:18.131Z,8.50
2022-11-29T07:10:49.005Z,9.90
2022-11-29T07:13:17.360Z,9.40
2022-11-29T07:16:12.064Z,9.50
2022-11-29T07:19:06.243Z,9.57
2022-11-29T07:21:57.891Z,8.43
2022-11-29T07:24:57.143Z,9.00
2022-11-29T07:27:54.049Z,6.97
2022-11-29T07:30:33.243Z,7.50
2022-11-29T07:33:45.159Z,7.13
2022-11-29T07:36:25.783Z,8.30
2022-11-29T07:39:27.091Z,7.03
2022-11-29T07:42:37.250Z,8.50
2022-11-29T07:45:31.794Z,6.13
2022-11-29T07:47:58.963Z,7.07
2022-11-29T07:50:27.524Z,7.10
2022-11-29T07:52:55.611Z,8.50
2022-11-29T07:55:25.310Z,5.93
2022-11-29T07:57:52.346Z,7.43
2022-11-29T08:00:20.194Z,7.57
2022-11-29T08:02:49.390Z,8.13
2022-11-29T08:05:15.933Z,6.67
2022-11-29T08:07:42.558Z,8.23
2022-11-29T08:10:13.672Z,8.07
2022-11-29T08:12:49.273Z,8.07
2022-11-29T08:15:18.056Z,7.37
2022-11-29T08:17:44.544Z,6.30
2022-11-29T08:20:13.604Z,6.80
2022-11-29T08:22:40.227Z,7.77
2022-11-29T08:25:07.719Z,8.53
2022-11-29T08:27:35.923Z,7.33
2022-11-29T08:30:03.204Z,8.20
2022-11-29T08:32:29.404Z,7.50
2022-11-29T08:34:55.624Z,7.10
2022-11-29T08:37:21.890Z,8.50
2022-11-29T08:39:48.065Z,8.00
2022-11-29T08:42:14.251Z,7.83
2022-11-29T08:44:40.594Z,8.47
2022-11-29T08:47:25.733Z,7.20
2022-11-29T08:50:00.610Z,8.13
2022-11-29T08:52:51.387Z,6.80
2022-11-29T08:55:19.427Z,7.80
2022-11-29T08:57:46.888Z,8.47
2022-11-29T09:00:14.096Z,6.73
2022-11-29T09:02:40.388Z,8.67
2022-11-29T09:05:09.204Z,7.63
2022-11-29T09:07:35.562Z,8.10
2022-11-29T09:10:04.683Z,7.50
2022-11-29T09:12:40.637Z,8.63
2022-11-29T09:15:10.161Z,8.93
2022-11-29T09:17:36.751Z,9.23
2022-11-29T09:20:05.239Z,8.20
2022-11-29T09:22:31.489Z,8.63
2022-11-29T09:24:57.635Z,8.73
2022-11-29T09:27:23.810Z,7.63
2022-11-29T09:29:49.944Z,8.40
2022-11-29T09:32:16.141Z,8.50
2022-11-29T09:34:42.444Z,7.57
2022-11-29T09:37:08.808Z,9.37
2022-11-29T09:39:35.086Z,8.97
2022-11-29T09:42:26.507Z,9.53
2022-11-29T09:45:18.602Z,7.80
2022-11-29T09:48:09.051Z,7.83
2022-11-29T09:50:43.683Z,8.37
2022-11-29T09:53:29.646Z,8.10
2022-11-29T09:56:17.800Z,8.17
2022-11-29T09:58:54.475Z,9.30
2022-11-29T10:01:27.840Z,9.43
2022-11-29T10:04:04.499Z,8.97
2022-11-29T10:06:45.007Z,9.27
2022-11-29T10:09:38.250Z,8.97
2022-11-29T10:12:22.758Z,9.10
2022-11-29T10:15:04.288Z,8.27
2022-11-29T10:18:03.849Z,8.23
2022-11-29T10:20:43.536Z,8.03
2022-11-29T10:23:32.301Z,7.73
2022-11-29T10:25:58.870Z,8.83
2022-11-29T10:28:32.064Z,7.83
2022-11-29T10:31:30.980Z,8.97
2022-11-29T10:34:07.162Z,8.00
2022-11-29T10:36:50.045Z,10.43
2022-11-29T10:39:36.416Z,8.50
2022-11-29T10:42:24.857Z,9.07
2022-11-29T10:44:51.419Z,9.40
2022-11-29T10:47:17.631Z,7.83
2022-11-29T10:49:43.827Z,7.33
2022-11-29T10:52:20.333Z,6.50
2022-11-29T10:54:49.187Z,6.30
2022-11-29T10:57:21.230Z,5.43
2022-11-29T11:00:13.246Z,6.80
2022-11-29T11:02:39.890Z,7.53
2022-11-29T11:05:18.777Z,6.27
2022-11-29T11:07:54.658Z,7.33
2022-11-29T11:10:27.257Z,6.03
2022-11-29T11:13:17.948Z,6.27
2022-11-29T11:15:44.558Z,6.97
2022-11-29T11:18:25.890Z,5.93
2022-11-29T11:20:57.252Z,6.40
2022-11-29T11:23:42.987Z,6.10
2022-11-29T11:26:13.926Z,6.50
2022-11-29T11:29:00.887Z,6.50
2022-11-29T11:31:37.268Z,5.90
2022-11-29T11:34:35.254Z,6.47
2022-11-29T11:37:24.646Z,6.07
2022-11-29T11:39:59.768Z,6.33
2022-11-29T11:42:40.263Z,6.17
2022-11-29T11:45:12.289Z,6.27
2022-11-29T11:47:49.922Z,6.70
2022-11-29T11:50:50.293Z,6.97
2022-11-29T11:53:35.566Z,6.80
2022-11-29T11:56:09.643Z,6.73
2022-11-29T11:58:57.205Z,6.37
2022-11-29T12:01:37.979Z,7.13
2022-11-29T12:04:18.900Z,6.43
2022-11-29T12:07:08.945Z,6.10
2022-11-29T12:10:05.011Z,6.57
2022-11-29T12:12:40.436Z,6.03
2022-11-29T12:15:32.118Z,6.20
2022-11-29T12:18:27.689Z,6.20
2022-11-29T12:21:07.212Z,6.57
2022-11-29T12:23:43.718Z,6.67
2022-11-29T12:26:55.763Z,6.00
2022-11-29T12:29:19.351Z,6.20
2022-11-29T12:32:20.207Z,6.57
2022-11-29T12:35:18.645Z,6.93
2022-11-29T12:38:05.839Z,7.03
2022-11-29T12:41:28.643Z,7.17
2022-11-29T12:44:17.727Z,7.20
2022-11-29T12:47:34.240Z,7.77
2022-11-29T12:50:26.799Z,7.10
2022-11-29T12:53:26.730Z,6.97
2022-11-29T12:56:23.043Z,6.67
2022-11-29T12:58:55.013Z,5.43
2022-11-29T13:01:51.406Z,6.33
2022-11-29T13:04:28.378Z,6.40
2022-11-29T13:07:18.685Z,7.23
2022-11-29T13:10:18.012Z,6.80
2022-11-29T13:13:18.381Z,6.77
2022-11-29T13:16:26.340Z,6.97
2022-11-29T13:19:17.814Z,7.07
2022-11-29T13:22:08.632Z,6.57
2022-11-29T13:25:00.863Z,7.13
2022-11-29T13:27:37.531Z,6.57
2022-11-29T13:30:05.420Z,7.90
2022-11-29T13:32:39.445Z,7.33
2022-11-29T13:35:35.539Z,6.83
2022-11-29T13:38:24.294Z,6.93
2022-11-29T13:41:19.555Z,7.33
2022-11-29T13:43:57.068Z,6.80
2022-11-29T13:46:45.939Z,7.53
2022-11-29T13:50:01.837Z,6.93
2022-11-29T13:52:46.433Z,6.97
2022-11-29T13:55:13.865Z,7.57
2022-11-29T13:58:16.207Z,7.23
2022-11-29T14:00:43.744Z,6.57
2022-11-29T14:03:35.215Z,8.10
2022-11-29T14:06:01.292Z,7.50
2022-11-29T14:09:17.271Z,7.77
2022-11-29T14:11:53.653Z,7.37
2022-11-29T14:14:32.294Z,7.97
2022-11-29T14:17:05.154Z,7.83
2022-11-29T14:19:36.313Z,8.50
2022-11-29T14:22:02.651Z,7.57
2022-11-29T14:24:31.574Z,8.23
2022-11-29T14:27:09.552Z,8.10
2022-11-29T14:29:48.654Z,8.00
2022-11-29T14:32:57.273Z,8.20
2022-11-29T14:35:38.816Z,7.60
2022-11-29T14:38:27.714Z,9.00
2022-11-29T14:41:32.606Z,8.03
2022-11-29T14:44:27.514Z,7.07
2022-11-29T14:47:20.978Z,7.93
2022-11-29T14:49:47.313Z,8.80
2022-11-29T14:52:13.395Z,9.27
2022-11-29T14:55:28.381Z,8.60
2022-11-29T14:58:15.192Z,10.03
2022-11-29T15:00:47.038Z,11.77
2022-11-29T15:03:20.508Z,12.37
2022-11-29T15:06:03.829Z,11.47
2022-11-29T15:08:40.039Z,10.47
2022-11-29T15:11:34.522Z,10.23
2022-11-29T15:14:14.601Z,8.87
2022-11-29T15:16:58.739Z,10.37
2022-11-29T15:19:51.405Z,11.80
2022-11-29T15:22:47.243Z,10.67
2022-11-29T15:25:24.065Z,10.27
2022-11-29T15:28:07.866Z,10.90
2022-11-29T15:30:40.755Z,11.20
2022-11-29T15:33:20.427Z,11.63
2022-11-29T15:36:19.158Z,12.53
2022-11-29T15:38:51.279Z,11.13
2022-11-29T15:41:26.941Z,10.30
2022-11-29T15:44:01.212Z,8.33
2022-11-29T15:46:34.078Z,10.33
2022-11-29T15:49:25.686Z,12.33
2022-11-29T15:52:20.520Z,9.77
2022-11-29T15:54:58.906Z,11.40
2022-11-29T15:57:47.494Z,8.80
2022-11-29T16:00:22.371Z,10.93
2022-11-29T16:03:00.800Z,9.77
2022-11-29T16:05:38.447Z,11.27
2022-11-29T16:08:20.772Z,8.27
2022-11-29T16:10:52.228Z,11.20
2022-11-29T16:13:40.744Z,10.77
2022-11-29T16:16:20.062Z,12.53
2022-11-29T16:18:49.571Z,9.03
2022-11-29T16:21:35.290Z,9.07
2022-11-29T16:24:29.281Z,11.00
2022-11-29T16:27:05.914Z,12.43
2022-11-29T16:29:50.097Z,11.57
2022-11-29T16:32:28.825Z,11.80
2022-11-29T16:35:03.057Z,14.30
2022-11-29T16:37:37.789Z,16.00
2022-11-29T16:40:04.838Z,13.53
2022-11-29T16:42:35.487Z,15.60
2022-11-29T16:45:01.538Z,15.87
2022-11-29T16:47:48.324Z,15.80
2022-11-29T16:50:22.090Z,15.10
2022-11-29T16:52:54.858Z,16.00
2022-11-29T16:55:23.509Z,16.37
2022-11-29T16:57:51.296Z,16.93
2022-11-29T17:00:33.090Z,15.53
2022-11-29T17:02:59.660Z,15.20
2022-11-29T17:05:26.455Z,18.43
2022-11-29T17:07:53.062Z,16.67
2022-11-29T17:10:24.304Z,16.43
2022-11-29T17:12:50.753Z,15.13
2022-11-29T17:15:16.985Z,15.43
2022-11-29T17:17:43.318Z,15.23
2022-11-29T17:20:12.320Z,15.03
2022-11-29T17:22:38.955Z,15.90
2022-11-29T17:25:06.354Z,16.23
2022-11-29T17:27:32.627Z,16.93
2022-11-29T17:29:58.820Z,15.57
2022-11-29T17:32:26.853Z,16.17
2022-11-29T17:34:53.687Z,15.20
2022-11-29T17:37:22.845Z,15.60
2022-11-29T17:39:49.103Z,16.70
2022-11-29T17:42:15.424Z,14.70
2022-11-29T17:44:41.679Z,17.47
2022-11-29T17:47:07.908Z,17.83
2022-11-29T17:49:34.094Z,16.80
2022-11-29T17:52:00.491Z,19.47
2022-11-29T17:54:26.709Z,13.10
2022-11-29T17:56:53.004Z,16.83
2022-11-29T17:59:19.595Z,17.90
2022-11-29T18:01:48.588Z,17.70
2022-11-29T18:04:15.064Z,18.40
2022-11-29T18:06:41.285Z,18.37
2022-11-29T18:09:10.423Z,14.37
2022-11-29T18:11:47.062Z,15.93
2022-11-29T18:14:19.215Z,14.73
2022-11-29T18:16:45.922Z,16.13
2022-11-29T18:19:16.464Z,18.87
2022-11-29T18:21:43.033Z,19.63
2022-11-29T18:24:10.331Z,20.43
2022-11-29T18:26:37.687Z,22.33
2022-11-29T18:29:05.702Z,20.20
2022-11-29T18:31:36.250Z,18.90
2022-11-29T18:34:06.180Z,14.90
2022-11-29T18:36:36.227Z,20.50
2022-11-29T18:39:08.191Z,21.43
2022-11-29T18:41:35.409Z,19.67
2022-11-29T18:44:08.493Z,18.10
2022-11-29T18:46:37.565Z,20.73
2022-11-29T18:49:07.781Z,19.40
2022-11-29T18:51:36.608Z,20.20
2022-11-29T18:54:03.791Z,19.13
2022-11-29T18:56:33.642Z,20.90
2022-11-29T18:59:05.038Z,19.43
2022-11-29T19:01:34.741Z,15.27
2022-11-29T19:04:01.430Z,17.43
2022-11-29T19:06:38.942Z,15.90
2022-11-29T19:09:11.243Z,17.30
2022-11-29T19:11:38.037Z,16.53
2022-11-29T19:14:10.482Z,18.93
2022-11-29T19:16:38.455Z,15.80
2022-11-29T19:19:04.739Z,15.93
2022-11-29T19:21:33.958Z,15.73
2022-11-29T19:24:03.960Z,17.90
2022-11-29T19:26:32.765Z,19.13
2022-11-29T19:29:00.581Z,19.83
2022-11-29T19:31:27.553Z,18.67
2022-11-29T19:33:55.555Z,15.60
2022-11-29T19:36:30.909Z,17.80
2022-11-29T19:39:00.593Z,19.73
2022-11-29T19:41:32.727Z,20.20
2022-11-29T19:44:06.606Z,17.83
2022-11-29T19:46:36.624Z,17.40
2022-11-29T19:49:05.351Z,16.00
2022-11-29T19:51:32.579Z,21.33
2022-11-29T19:54:03.310Z,16.20
2022-11-29T19:56:31.609Z,16.57
2022-11-29T19:59:00.997Z,14.43
2022-11-29T20:01:39.626Z,16.97
2022-11-29T20:04:08.011Z,15.47
2022-11-29T20:06:34.764Z,16.67
2022-11-29T20:09:01.462Z,16.33
2022-11-29T20:11:27.666Z,15.40
2022-11-29T20:14:00.456Z,23.70
2022-11-29T20:16:28.778Z,20.87
2022-11-29T20:18:56.105Z,18.73
2022-11-29T20:21:26.433Z,17.90
2022-11-29T20:24:03.198Z,19.33
2022-11-29T20:26:32.401Z,18.20
2022-11-29T20:28:59.415Z,15.57
2022-11-29T20:31:25.713Z,19.97
2022-11-29T20:33:56.539Z,12.60
2022-11-29T20:37:07.082Z,13.40
2022-11-29T20:40:44.652Z,17.30
2022-11-29T20:43:40.762Z,16.20
2022-11-29T20:46:07.492Z,17.97
2022-11-29T20:48:36.083Z,14.93
2022-11-29T20:51:02.948Z,18.60
2022-11-29T20:53:42.280Z,16.63
2022-11-29T20:56:10.754Z,15.30
2022-11-29T20:58:38.126Z,15.03
2022-11-29T21:01:05.391Z,13.77
2022-11-29T21:03:31.809Z,14.50
2022-11-29T21:06:03.987Z,20.53
2022-11-29T21:08:30.237Z,14.37
2022-11-29T21:11:07.338Z,14.20
2022-11-29T21:13:34.257Z,18.27
2022-11-29T21:16:01.354Z,15.80
2022-11-29T21:18:30.183Z,19.73
2022-11-29T21:21:26.839Z,17.07
2022-11-29T21:24:23.820Z,21.63
2022-11-29T21:26:51.785Z,18.23
2022-11-29T21:29:22.823Z,16.37
2022-11-29T21:31:52.512Z,16.00
2022-11-29T21:34:20.120Z,17.37
2022-11-29T21:37:00.107Z,13.80
2022-11-29T21:39:32.967Z,14.40
2022-11-29T21:41:59.377Z,16.83
2022-11-29T21:44:25.876Z,14.33
2022-11-29T21:46:52.130Z,14.87
2022-11-29T21:49:18.324Z,13.93
2022-11-29T21:51:44.480Z,16.80
2022-11-29T21:54:10.738Z,19.27
2022-11-29T21:56:36.970Z,16.83
2022-11-29T21:59:03.181Z,14.70
2022-11-29T22:01:29.519Z,17.53
2022-11-29T22:03:55.892Z,19.83
2022-11-29T22:06:23.540Z,19.83
2022-11-29T22:08:50.010Z,16.00
2022-11-29T22:11:33.466Z,17.03
2022-11-29T22:14:18.241Z,18.87
2022-11-29T22:16:50.183Z,16.97
2022-11-29T22:19:23.203Z,20.40
2022-11-29T22:21:52.463Z,18.17
2022-11-29T22:24:23.475Z,20.63
2022-11-29T22:26:51.635Z,19.27
2022-11-29T22:29:18.373Z,18.43
2022-11-29T22:31:47.478Z,18.50
2022-11-29T22:34:14.025Z,16.27
2022-11-29T22:36:40.969Z,17.77
2022-11-29T22:39:08.496Z,17.87
2022-11-29T22:41:36.969Z,19.43
2022-11-29T22:44:03.931Z,18.83
2022-11-29T22:46:30.298Z,16.00
2022-11-29T22:48:59.721Z,17.43
2022-11-29T22:51:32.646Z,18.47
2022-11-29T22:54:02.360Z,18.70
2022-11-29T22:56:32.834Z,18.97
2022-11-29T22:58:59.008Z,18.90
2022-11-29T23:01:28.955Z,18.10
2022-11-29T23:03:58.430Z,17.73
2022-11-29T23:06:31.339Z,14.63
2022-11-29T23:09:04.802Z,16.57
2022-11-29T23:11:31.930Z,16.83
2022-11-29T23:13:59.844Z,12.47
2022-11-29T23:16:28.855Z,12.93
2022-11-29T23:19:06.086Z,12.80
2022-11-29T23:21:35.909Z,14.37
2022-11-29T23:24:02.819Z,13.60
2022-11-29T23:26:38.138Z,10.57
2022-11-29T23:29:07.769Z,13.57
2022-11-29T23:31:33.974Z,12.47
2022-11-29T23:34:02.043Z,12.77
2022-11-29T23:36:28.347Z,11.37
2022-11-29T23:38:54.520Z,12.97
2022-11-29T23:41:20.828Z,9.23
2022-11-29T23:43:47.976Z,12.40
2022-11-29T23:46:19.056Z,11.17
2022-11-29T23:48:45.665Z,12.43
2022-11-29T23:51:12.576Z,12.47
2022-11-29T23:53:40.281Z,13.63
2022-11-29T23:56:14.064Z,12.73
2022-11-29T23:58:41.261Z,10.77
